Darstellungsparameter: Aktuell verwendete Einstellungen:
Skalierung der Graphiken ... ?
xyx+y,   Skalierungsfaktor:      Skalierung: Modus: x, Faktor: 1
Darstellungszeitraum ... ?
Vom - - bis: - -   Zeitraum: 04.05.2019 - 06.05.2019
Min/Max/Avg-Anzeige ... ?
Zeige MMA aktuell
Zeige MMA Monat
Zeige MMA alles
Zeige --A aktuell
Zeige --A Monat
Zeige --A alles
Keine MMA-Anzeige
MMA:
Average (ber die Originaldaten)
MMA-Basis: 04.05.2019 - 06.05.2019
Quicknavigation für Darstellung... ?
Tage:      1T, 2T, 3T, 5T -1T -2T -3T -5T +1T +2T +3T +5T
Wochen: 1W, 2W, 3W -1W -2W -3W +1W +2W +3W
Monate: 1M, 3M, 6M -1M -3M -6M +1M +3M +6M
Jahre:    1J, 3J, 5J, 10J -1J -3J -5J -10J +1J +3J +5J +10J
Nutze für die Darstellung ... ?
Originaldaten oder Mittelwerte auf ...
Stundenbasis Tagesbasis Wochenbasis
Monatsbasis Jahresbasis      Datenbasis: Original-Daten
Darstellen als:
Statistik (Auto) Statistik J:M      Darstellung:
Zur Graphik,    zurück zur Übersicht aller Sensoren.
 
Tabellarische Datenbersicht: ?
 
Sensor: Nr:Datum:Temp:Abs-Feuchte:Windchill:Wind:
Aussen-T/F 1 04-05-2019 00:00:00 8.2 C 6.78 g/m*3 8.2 C 0 km/h
2 04-05-2019 00:05:00 8.2 C 6.78 g/m*3 8.2 C 0 km/h
3 04-05-2019 00:10:00 8.2 C 6.78 g/m*3 8.2 C 0 km/h
4 04-05-2019 00:15:00 8.2 C 6.78 g/m*3 8.2 C 0 km/h
5 04-05-2019 00:20:00 8.2 C 6.87 g/m*3 8.2 C 0 km/h
6 04-05-2019 00:25:00 8.1 C 6.82 g/m*3 8.1 C 0 km/h
7 04-05-2019 00:30:00 8.1 C 6.82 g/m*3 8.1 C 0 km/h
8 04-05-2019 00:35:00 8 C 6.78 g/m*3 8 C 0 km/h
9 04-05-2019 00:40:00 7.9 C 6.74 g/m*3 7.9 C 0 km/h
10 04-05-2019 00:45:00 7.9 C 6.74 g/m*3 7.9 C 0 km/h
11 04-05-2019 00:50:00 7.9 C 6.74 g/m*3 7.9 C 0 km/h
12 04-05-2019 00:55:00 7.8 C 6.69 g/m*3 7.8 C 0 km/h
13 04-05-2019 01:00:00 7.8 C 6.77 g/m*3 7.8 C 0 km/h
14 04-05-2019 01:05:00 7.7 C 6.73 g/m*3 7.7 C 0 km/h
15 04-05-2019 01:10:00 7.7 C 6.73 g/m*3 7.7 C 0 km/h
16 04-05-2019 01:15:00 7.7 C 6.73 g/m*3 7.7 C 0 km/h
17 04-05-2019 01:20:00 7.6 C 6.69 g/m*3 7.6 C 0 km/h
18 04-05-2019 01:25:00 7.6 C 6.69 g/m*3 7.6 C 0 km/h
19 04-05-2019 01:30:00 7.6 C 6.69 g/m*3 7.6 C 0 km/h
20 04-05-2019 01:35:00 7.6 C 6.69 g/m*3 7.6 C 0 km/h
21 04-05-2019 01:40:00 7.6 C 6.77 g/m*3 7.6 C 0 km/h
22 04-05-2019 01:45:00 7.6 C 6.69 g/m*3 7.6 C 0 km/h
23 04-05-2019 01:50:00 7.5 C 6.64 g/m*3 7.5 C 0 km/h
24 04-05-2019 01:55:00 7.5 C 6.72 g/m*3 7.5 C 0 km/h
25 04-05-2019 02:00:00 7.5 C 6.72 g/m*3 7.5 C 0 km/h
Sensor: Nr:Datum:Temp:Abs-Feuchte:Windchill:Wind:
Aussen-T/F 26 04-05-2019 02:05:00 7.5 C 6.72 g/m*3 7.5 C 0 km/h
27 04-05-2019 02:10:00 7.5 C 6.72 g/m*3 7.5 C 0 km/h
28 04-05-2019 02:15:00 7.6 C 6.85 g/m*3 7.6 C 0 km/h
29 04-05-2019 02:20:00 7.6 C 6.85 g/m*3 7.6 C 0 km/h
30 04-05-2019 02:25:00 7.6 C 6.85 g/m*3 7.6 C 0 km/h
31 04-05-2019 02:30:00 7.6 C 6.85 g/m*3 7.6 C 0 km/h
32 04-05-2019 02:35:00 7.6 C 6.85 g/m*3 7.6 C 0 km/h
33 04-05-2019 02:40:00 7.6 C 6.85 g/m*3 7.6 C 0 km/h
34 04-05-2019 02:45:00 7.6 C 6.85 g/m*3 7.6 C 0 km/h
35 04-05-2019 02:50:00 7.6 C 6.85 g/m*3 7.6 C 0 km/h
36 04-05-2019 02:55:00 7.6 C 6.85 g/m*3 7.6 C 0 km/h
37 04-05-2019 03:00:00 7.5 C 6.8 g/m*3 7.5 C 0 km/h
38 04-05-2019 03:05:00 7.5 C 6.88 g/m*3 7.5 C 0 km/h
39 04-05-2019 03:10:00 7.4 C 6.84 g/m*3 7.4 C 0 km/h
40 04-05-2019 03:15:00 7.4 C 6.84 g/m*3 7.4 C 0 km/h
41 04-05-2019 03:20:00 7.4 C 6.84 g/m*3 7.4 C 0 km/h
42 04-05-2019 03:25:00 7.4 C 6.92 g/m*3 7.4 C 0 km/h
43 04-05-2019 03:30:00 7.4 C 6.92 g/m*3 7.4 C 0 km/h
44 04-05-2019 03:35:00 7.4 C 6.92 g/m*3 7.4 C 0 km/h
45 04-05-2019 03:40:00 7.4 C 6.92 g/m*3 7.4 C 0 km/h
46 04-05-2019 03:45:00 7.4 C 7 g/m*3 7.4 C 0 km/h
47 04-05-2019 03:50:00 7.5 C 7.04 g/m*3 7.5 C 0 km/h
48 04-05-2019 03:55:00 7.5 C 7.04 g/m*3 7.5 C 0 km/h
49 04-05-2019 04:00:00 7.6 C 7.17 g/m*3 7.6 C 0 km/h
50 04-05-2019 04:05:00 7.6 C 7.09 g/m*3 7.6 C 0 km/h
Sensor: Nr:Datum:Temp:Abs-Feuchte:Windchill:Wind:
Aussen-T/F 51 04-05-2019 04:10:00 7.6 C 7.17 g/m*3 7.6 C 0 km/h
52 04-05-2019 04:15:00 7.6 C 7.25 g/m*3 7.6 C 1.6 km/h
53 04-05-2019 04:20:00 7.6 C 7.25 g/m*3 7.6 C 4.8 km/h
54 04-05-2019 04:25:00 7.6 C 7.25 g/m*3 6.6 C 6.4 km/h
55 04-05-2019 04:30:00 7.6 C 7.25 g/m*3 7.6 C 4.8 km/h
56 04-05-2019 04:35:00 7.5 C 7.28 g/m*3 5.7 C 9.7 km/h
57 04-05-2019 04:40:00 7.4 C 7.24 g/m*3 5.02 C 12.9 km/h
58 04-05-2019 04:45:00 7.2 C 7.14 g/m*3 6.13 C 6.4 km/h
59 04-05-2019 04:50:00 6.9 C 7.01 g/m*3 4.41 C 12.9 km/h
60 04-05-2019 04:55:00 6.6 C 6.87 g/m*3 2.99 C 20.9 km/h
61 04-05-2019 05:00:00 6.2 C 6.62 g/m*3 2.86 C 17.7 km/h
62 04-05-2019 05:05:00 5.9 C 6.56 g/m*3 3.19 C 12.9 km/h
63 04-05-2019 05:10:00 5.6 C 6.43 g/m*3 3.11 C 11.3 km/h
64 04-05-2019 05:15:00 5.3 C 6.24 g/m*3 2.75 C 11.3 km/h
65 04-05-2019 05:20:00 5.1 C 6.22 g/m*3 2.22 C 12.9 km/h
66 04-05-2019 05:25:00 4.9 C 6.14 g/m*3 1.46 C 16.1 km/h
67 04-05-2019 05:30:00 4.8 C 6.17 g/m*3 1.58 C 14.5 km/h
68 04-05-2019 05:35:00 4.7 C 6.13 g/m*3 1.73 C 12.9 km/h
69 04-05-2019 05:40:00 4.6 C 6.09 g/m*3 1.91 C 11.3 km/h
70 04-05-2019 05:45:00 4.5 C 6.05 g/m*3 1.48 C 12.9 km/h
71 04-05-2019 05:50:00 4.4 C 6.01 g/m*3 1.36 C 12.9 km/h
72 04-05-2019 05:55:00 4.3 C 5.97 g/m*3 1.55 C 11.3 km/h
73 04-05-2019 06:00:00 4.2 C 5.93 g/m*3 1.43 C 11.3 km/h
74 04-05-2019 06:05:00 4.1 C 5.89 g/m*3 1.65 C 9.7 km/h
75 04-05-2019 06:10:00 4.1 C 5.89 g/m*3 1.31 C 11.3 km/h
Sensor: Nr:Datum:Temp:Abs-Feuchte:Windchill:Wind:
Aussen-T/F 76 04-05-2019 06:15:00 3.9 C 5.81 g/m*3 1.06 C 11.3 km/h
77 04-05-2019 06:20:00 3.8 C 5.77 g/m*3 0.63 C 12.9 km/h
78 04-05-2019 06:25:00 3.7 C 5.73 g/m*3 0.82 C 11.3 km/h
79 04-05-2019 06:30:00 3.6 C 5.69 g/m*3 1.06 C 9.7 km/h
80 04-05-2019 06:35:00 3.6 C 5.76 g/m*3 0.7 C 11.3 km/h
81 04-05-2019 06:40:00 3.6 C 5.69 g/m*3 1.06 C 9.7 km/h
82 04-05-2019 06:45:00 3.5 C 5.72 g/m*3 1.34 C 8.1 km/h
83 04-05-2019 06:50:00 3.4 C 5.68 g/m*3 1.23 C 8.1 km/h
84 04-05-2019 06:55:00 3.4 C 5.68 g/m*3 0.82 C 9.7 km/h
85 04-05-2019 07:00:00 3.3 C 5.64 g/m*3 0.7 C 9.7 km/h
86 04-05-2019 07:05:00 3.3 C 5.64 g/m*3 1.63 C 6.4 km/h
87 04-05-2019 07:10:00 3.3 C 5.64 g/m*3 3.3 C 3.2 km/h
88 04-05-2019 07:15:00 3.3 C 5.64 g/m*3 1.63 C 6.4 km/h
89 04-05-2019 07:20:00 3.3 C 5.64 g/m*3 1.63 C 6.4 km/h
90 04-05-2019 07:25:00 3.2 C 5.6 g/m*3 0.22 C 11.3 km/h
91 04-05-2019 07:30:00 3.2 C 5.6 g/m*3 1.51 C 6.4 km/h
92 04-05-2019 07:35:00 3.2 C 5.6 g/m*3 1.51 C 6.4 km/h
93 04-05-2019 07:40:00 3.2 C 5.6 g/m*3 0.99 C 8.1 km/h
94 04-05-2019 07:45:00 3.2 C 5.6 g/m*3 3.2 C 3.2 km/h
95 04-05-2019 07:50:00 3.2 C 5.6 g/m*3 3.2 C 4.8 km/h
96 04-05-2019 07:55:00 3.1 C 5.57 g/m*3 3.1 C 4.8 km/h
97 04-05-2019 08:00:00 3.2 C 5.6 g/m*3 3.2 C 3.2 km/h
98 04-05-2019 08:05:00 3.2 C 5.6 g/m*3 3.2 C 3.2 km/h
99 04-05-2019 08:10:00 3.2 C 5.66 g/m*3 1.51 C 6.4 km/h
100 04-05-2019 08:15:00 3.2 C 5.66 g/m*3 3.2 C 4.8 km/h
Sensor: Nr:Datum:Temp:Abs-Feuchte:Windchill:Wind:
Aussen-T/F 101 04-05-2019 08:20:00 3.2 C 5.66 g/m*3 1.51 C 6.4 km/h
102 04-05-2019 08:25:00 3.2 C 5.66 g/m*3 3.2 C 4.8 km/h
103 04-05-2019 08:30:00 3.2 C 5.66 g/m*3 0.58 C 9.7 km/h
104 04-05-2019 08:35:00 3.3 C 5.7 g/m*3 0.7 C 9.7 km/h
105 04-05-2019 08:40:00 3.3 C 5.7 g/m*3 3.3 C 3.2 km/h
106 04-05-2019 08:45:00 3.3 C 5.7 g/m*3 3.3 C 1.6 km/h
107 04-05-2019 08:50:00 3.4 C 5.74 g/m*3 3.4 C 3.2 km/h
108 04-05-2019 08:55:00 3.5 C 5.78 g/m*3 3.5 C 4.8 km/h
109 04-05-2019 09:00:00 3.6 C 5.82 g/m*3 3.6 C 3.2 km/h
110 04-05-2019 09:05:00 3.7 C 5.86 g/m*3 3.7 C 4.8 km/h
111 04-05-2019 09:10:00 3.7 C 5.86 g/m*3 2.09 C 6.4 km/h
112 04-05-2019 09:15:00 3.8 C 5.9 g/m*3 3.8 C 3.2 km/h
113 04-05-2019 09:20:00 3.8 C 5.9 g/m*3 3.8 C 1.6 km/h
114 04-05-2019 09:25:00 3.9 C 5.94 g/m*3 3.9 C 4.8 km/h
115 04-05-2019 09:30:00 3.9 C 5.94 g/m*3 3.9 C 4.8 km/h
116 04-05-2019 09:35:00 4.1 C 6.02 g/m*3 4.1 C 1.6 km/h
117 04-05-2019 09:40:00 4.2 C 6.06 g/m*3 2.17 C 8.1 km/h
118 04-05-2019 09:45:00 4.2 C 6.06 g/m*3 4.2 C 0 km/h
119 04-05-2019 09:50:00 4.4 C 6.14 g/m*3 4.4 C 1.6 km/h
120 04-05-2019 09:55:00 4.6 C 6.22 g/m*3 4.6 C 4.8 km/h
121 04-05-2019 10:00:00 4.5 C 6.11 g/m*3 3.02 C 6.4 km/h
122 04-05-2019 10:05:00 4.5 C 6.11 g/m*3 4.5 C 4.8 km/h
123 04-05-2019 10:10:00 4.6 C 6.09 g/m*3 2.64 C 8.1 km/h
124 04-05-2019 10:15:00 4.5 C 5.98 g/m*3 2.52 C 8.1 km/h
125 04-05-2019 10:20:00 4.5 C 5.98 g/m*3 2.52 C 8.1 km/h
Sensor: Nr:Datum:Temp:Abs-Feuchte:Windchill:Wind:
Aussen-T/F 126 04-05-2019 10:25:00 4.5 C 5.98 g/m*3 3.02 C 6.4 km/h
127 04-05-2019 10:30:00 4.6 C 6.02 g/m*3 2.64 C 8.1 km/h
128 04-05-2019 10:35:00 4.7 C 6.06 g/m*3 3.25 C 6.4 km/h
129 04-05-2019 10:40:00 4.8 C 6.1 g/m*3 2.49 C 9.7 km/h
130 04-05-2019 10:45:00 4.9 C 6.08 g/m*3 2.99 C 8.1 km/h
131 04-05-2019 10:50:00 4.8 C 5.97 g/m*3 3.36 C 6.4 km/h
132 04-05-2019 10:55:00 4.8 C 5.97 g/m*3 3.36 C 6.4 km/h
133 04-05-2019 11:00:00 4.8 C 5.97 g/m*3 3.36 C 6.4 km/h
134 04-05-2019 11:05:00 4.8 C 5.97 g/m*3 2.87 C 8.1 km/h
135 04-05-2019 11:10:00 4.8 C 6.04 g/m*3 4.8 C 4.8 km/h
136 04-05-2019 11:15:00 4.9 C 6.08 g/m*3 4.9 C 4.8 km/h
137 04-05-2019 11:20:00 4.9 C 6.08 g/m*3 2.61 C 9.7 km/h
138 04-05-2019 11:25:00 4.9 C 6.01 g/m*3 2.61 C 9.7 km/h
139 04-05-2019 11:30:00 4.9 C 6.01 g/m*3 2.61 C 9.7 km/h
140 04-05-2019 11:35:00 5 C 6.05 g/m*3 3.11 C 8.1 km/h
141 04-05-2019 11:40:00 5.2 C 6.13 g/m*3 5.2 C 4.8 km/h
142 04-05-2019 11:45:00 5.3 C 6.24 g/m*3 3.46 C 8.1 km/h
143 04-05-2019 11:50:00 5.3 C 6.1 g/m*3 2.75 C 11.3 km/h
144 04-05-2019 11:55:00 5.3 C 6.03 g/m*3 3.08 C 9.7 km/h
145 04-05-2019 12:00:00 5.3 C 6.03 g/m*3 3.46 C 8.1 km/h
146 04-05-2019 12:05:00 5.4 C 6.07 g/m*3 3.2 C 9.7 km/h
147 04-05-2019 12:10:00 5.4 C 6.07 g/m*3 3.2 C 9.7 km/h
148 04-05-2019 12:15:00 5.5 C 6.11 g/m*3 3.32 C 9.7 km/h
149 04-05-2019 12:20:00 5.6 C 6.15 g/m*3 4.29 C 6.4 km/h
150 04-05-2019 12:25:00 5.8 C 6.23 g/m*3 4.52 C 6.4 km/h
Sensor: Nr:Datum:Temp:Abs-Feuchte:Windchill:Wind:
Aussen-T/F 151 04-05-2019 12:30:00 6 C 6.24 g/m*3 3.92 C 9.7 km/h
152 04-05-2019 12:35:00 6.2 C 6.32 g/m*3 4.15 C 9.7 km/h
153 04-05-2019 12:40:00 6.3 C 6.29 g/m*3 3.96 C 11.3 km/h
154 04-05-2019 12:45:00 6.5 C 6.3 g/m*3 4.87 C 8.1 km/h
155 04-05-2019 12:50:00 6.6 C 6.27 g/m*3 4.99 C 8.1 km/h
156 04-05-2019 12:55:00 6.6 C 6.19 g/m*3 4.99 C 8.1 km/h
157 04-05-2019 13:00:00 6.7 C 6.15 g/m*3 5.11 C 8.1 km/h
158 04-05-2019 13:05:00 6.7 C 6.08 g/m*3 5.11 C 8.1 km/h
159 04-05-2019 13:10:00 6.7 C 6.08 g/m*3 5.11 C 8.1 km/h
160 04-05-2019 13:15:00 6.9 C 6.08 g/m*3 4.41 C 12.9 km/h
161 04-05-2019 13:20:00 7.1 C 6.4 g/m*3 5.58 C 8.1 km/h
162 04-05-2019 13:25:00 7.3 C 6.32 g/m*3 5.81 C 8.1 km/h
163 04-05-2019 13:30:00 7.5 C 6.24 g/m*3 6.05 C 8.1 km/h
164 04-05-2019 13:35:00 7.6 C 6.2 g/m*3 5.53 C 11.3 km/h
165 04-05-2019 13:40:00 7.6 C 6.2 g/m*3 5.26 C 12.9 km/h
166 04-05-2019 13:45:00 7.6 C 6.04 g/m*3 6.16 C 8.1 km/h
167 04-05-2019 13:50:00 7.7 C 6 g/m*3 6.71 C 6.4 km/h
168 04-05-2019 13:55:00 7.7 C 6.16 g/m*3 6.71 C 6.4 km/h
169 04-05-2019 14:00:00 7.7 C 6.41 g/m*3 5.38 C 12.9 km/h
170 04-05-2019 14:05:00 7.6 C 6.61 g/m*3 5.53 C 11.3 km/h
171 04-05-2019 14:10:00 7.5 C 6.4 g/m*3 5.7 C 9.7 km/h
172 04-05-2019 14:15:00 7.7 C 6.24 g/m*3 5.15 C 14.5 km/h
173 04-05-2019 14:20:00 7.9 C 6.16 g/m*3 5.18 C 16.1 km/h
174 04-05-2019 14:25:00 8.2 C 6.28 g/m*3 5.99 C 12.9 km/h
175 04-05-2019 14:30:00 8.3 C 6.32 g/m*3 5.89 C 14.5 km/h
Sensor: Nr:Datum:Temp:Abs-Feuchte:Windchill:Wind:
Aussen-T/F 176 04-05-2019 14:35:00 8.3 C 6.24 g/m*3 6.66 C 9.7 km/h
177 04-05-2019 14:40:00 8.3 C 6.32 g/m*3 5.68 C 16.1 km/h
178 04-05-2019 14:45:00 7.4 C 6.12 g/m*3 2.9 C 33.8 km/h
179 04-05-2019 14:50:00 5.8 C 5.73 g/m*3 2.36 C 17.7 km/h
180 04-05-2019 14:55:00 4.6 C 5.49 g/m*3 1.91 C 11.3 km/h
181 04-05-2019 15:00:00 4 C 5.4 g/m*3 0.6 C 14.5 km/h
182 04-05-2019 15:05:00 3.8 C 5.46 g/m*3 1.7 C 8.1 km/h
183 04-05-2019 15:10:00 3.7 C 5.55 g/m*3 1.18 C 9.7 km/h
184 04-05-2019 15:15:00 3.7 C 5.61 g/m*3 0.51 C 12.9 km/h
185 04-05-2019 15:20:00 3.8 C 5.71 g/m*3 3.8 C 4.8 km/h
186 04-05-2019 15:25:00 4 C 5.85 g/m*3 4 C 4.8 km/h
187 04-05-2019 15:30:00 4.4 C 5.94 g/m*3 2.4 C 8.1 km/h
188 04-05-2019 15:35:00 4.7 C 6 g/m*3 4.7 C 3.2 km/h
189 04-05-2019 15:40:00 5.2 C 6.2 g/m*3 5.2 C 1.6 km/h
190 04-05-2019 15:45:00 5.9 C 6.27 g/m*3 5.9 C 4.8 km/h
191 04-05-2019 15:50:00 6.5 C 6.6 g/m*3 6.5 C 4.8 km/h
192 04-05-2019 15:55:00 7.2 C 7.06 g/m*3 7.2 C 3.2 km/h
193 04-05-2019 16:00:00 7.9 C 7.15 g/m*3 6.94 C 6.4 km/h
194 04-05-2019 16:05:00 8.2 C 7.12 g/m*3 7.29 C 6.4 km/h
195 04-05-2019 16:10:00 8.4 C 6.96 g/m*3 6.24 C 12.9 km/h
196 04-05-2019 16:15:00 8.3 C 6.74 g/m*3 6.99 C 8.1 km/h
197 04-05-2019 16:20:00 7.7 C 6.49 g/m*3 4.55 C 19.3 km/h
198 04-05-2019 16:25:00 7.4 C 6.6 g/m*3 6.37 C 6.4 km/h
199 04-05-2019 16:30:00 7.2 C 6.59 g/m*3 5.69 C 8.1 km/h
200 04-05-2019 16:35:00 7.2 C 6.75 g/m*3 7.2 C 1.6 km/h
Sensor: Nr:Datum:Temp:Abs-Feuchte:Windchill:Wind:
Aussen-T/F 201 04-05-2019 16:40:00 7.2 C 6.75 g/m*3 7.2 C 1.6 km/h
202 04-05-2019 16:45:00 7.5 C 7.2 g/m*3 7.5 C 0 km/h
203 04-05-2019 16:50:00 7.9 C 7.39 g/m*3 7.9 C 1.6 km/h
204 04-05-2019 16:55:00 8.8 C 7.75 g/m*3 8.8 C 3.2 km/h
205 04-05-2019 17:00:00 9.2 C 7.68 g/m*3 9.2 C 0 km/h
206 04-05-2019 17:05:00 9.8 C 7.89 g/m*3 9.8 C 4.8 km/h
207 04-05-2019 17:10:00 10.3 C 7.95 g/m*3 9.34 C 8.1 km/h
208 04-05-2019 17:15:00 10.4 C 7.71 g/m*3 10.4 C 3.2 km/h
209 04-05-2019 17:20:00 10.3 C 7.66 g/m*3 10.3 C 1.6 km/h
210 04-05-2019 17:25:00 9.9 C 7 g/m*3 9.25 C 6.4 km/h
211 04-05-2019 17:30:00 9.8 C 7.7 g/m*3 9.8 C 0 km/h
212 04-05-2019 17:35:00 9.7 C 7.19 g/m*3 8.63 C 8.1 km/h
213 04-05-2019 17:40:00 10 C 6.95 g/m*3 8.42 C 11.3 km/h
214 04-05-2019 17:45:00 10.4 C 6.84 g/m*3 8.67 C 12.9 km/h
215 04-05-2019 17:50:00 10.7 C 6.48 g/m*3 9.04 C 12.9 km/h
216 04-05-2019 17:55:00 11.1 C 6.65 g/m*3 11.1 C 12.9 km/h
217 04-05-2019 18:00:00 11.1 C 6.35 g/m*3 11.1 C 12.9 km/h
218 04-05-2019 18:05:00 10.8 C 5.93 g/m*3 8.96 C 14.5 km/h
219 04-05-2019 18:10:00 10.5 C 5.92 g/m*3 9.02 C 11.3 km/h
220 04-05-2019 18:15:00 10.6 C 5.76 g/m*3 8.53 C 16.1 km/h
221 04-05-2019 18:20:00 10.6 C 5.76 g/m*3 8.53 C 16.1 km/h
222 04-05-2019 18:25:00 10.7 C 6.09 g/m*3 8.18 C 20.9 km/h
223 04-05-2019 18:30:00 10.6 C 5.47 g/m*3 8.53 C 16.1 km/h
224 04-05-2019 18:35:00 10.1 C 5.39 g/m*3 7.73 C 17.7 km/h
225 04-05-2019 18:40:00 9.6 C 5.31 g/m*3 7.48 C 14.5 km/h
Sensor: Nr:Datum:Temp:Abs-Feuchte:Windchill:Wind:
Aussen-T/F 226 04-05-2019 18:45:00 9.7 C 5.72 g/m*3 7.61 C 14.5 km/h
227 04-05-2019 18:50:00 10 C 6.11 g/m*3 7.98 C 14.5 km/h
228 04-05-2019 18:55:00 10.1 C 6.24 g/m*3 8.1 C 14.5 km/h
229 04-05-2019 19:00:00 10.2 C 6.47 g/m*3 7.7 C 19.3 km/h
230 04-05-2019 19:05:00 10.2 C 6.38 g/m*3 8.22 C 14.5 km/h
231 04-05-2019 19:10:00 10.1 C 6.15 g/m*3 8.1 C 14.5 km/h
232 04-05-2019 19:15:00 10 C 6.3 g/m*3 8.19 C 12.9 km/h
233 04-05-2019 19:20:00 9.8 C 5.94 g/m*3 7.94 C 12.9 km/h
234 04-05-2019 19:25:00 9.6 C 5.95 g/m*3 7.94 C 11.3 km/h
235 04-05-2019 19:30:00 9.3 C 6.02 g/m*3 7.85 C 9.7 km/h
236 04-05-2019 19:35:00 9.2 C 5.8 g/m*3 6.79 C 16.1 km/h
237 04-05-2019 19:40:00 8.9 C 5.87 g/m*3 6.62 C 14.5 km/h
238 04-05-2019 19:45:00 8.4 C 5.77 g/m*3 5.8 C 16.1 km/h
239 04-05-2019 19:50:00 8.1 C 5.91 g/m*3 6.75 C 8.1 km/h
240 04-05-2019 19:55:00 7.8 C 5.96 g/m*3 5.77 C 11.3 km/h
241 04-05-2019 20:00:00 7.8 C 6.12 g/m*3 5.77 C 11.3 km/h
242 04-05-2019 20:05:00 7.8 C 6.12 g/m*3 6.83 C 6.4 km/h
243 04-05-2019 20:10:00 7.8 C 6.04 g/m*3 7.8 C 3.2 km/h
244 04-05-2019 20:15:00 7.8 C 6.04 g/m*3 6.4 C 8.1 km/h
245 04-05-2019 20:20:00 7.7 C 5.84 g/m*3 5.94 C 9.7 km/h
246 04-05-2019 20:25:00 7.6 C 5.88 g/m*3 7.6 C 3.2 km/h
247 04-05-2019 20:30:00 7.5 C 5.92 g/m*3 7.5 C 3.2 km/h
248 04-05-2019 20:35:00 7.4 C 6.04 g/m*3 7.4 C 3.2 km/h
249 04-05-2019 20:40:00 7.3 C 6.08 g/m*3 7.3 C 0 km/h
250 04-05-2019 20:45:00 7.1 C 5.93 g/m*3 5.58 C 8.1 km/h
Sensor: Nr:Datum:Temp:Abs-Feuchte:Windchill:Wind:
Aussen-T/F 251 04-05-2019 20:50:00 7 C 5.89 g/m*3 7 C 3.2 km/h
252 04-05-2019 20:55:00 6.9 C 5.93 g/m*3 6.9 C 3.2 km/h
253 04-05-2019 21:00:00 6.8 C 5.97 g/m*3 6.8 C 4.8 km/h
254 04-05-2019 21:05:00 6.8 C 5.89 g/m*3 5.67 C 6.4 km/h
255 04-05-2019 21:10:00 6.7 C 5.93 g/m*3 6.7 C 3.2 km/h
256 04-05-2019 21:15:00 6.7 C 5.93 g/m*3 6.7 C 3.2 km/h
257 04-05-2019 21:20:00 6.7 C 5.93 g/m*3 6.7 C 3.2 km/h
258 04-05-2019 21:25:00 6.6 C 5.89 g/m*3 6.6 C 4.8 km/h
259 04-05-2019 21:30:00 6.6 C 5.96 g/m*3 4.32 C 11.3 km/h
260 04-05-2019 21:35:00 6.4 C 5.89 g/m*3 4.75 C 8.1 km/h
261 04-05-2019 21:40:00 6.3 C 6 g/m*3 4.27 C 9.7 km/h
262 04-05-2019 21:45:00 6.2 C 5.96 g/m*3 6.2 C 1.6 km/h
263 04-05-2019 21:50:00 6.1 C 5.92 g/m*3 4.86 C 6.4 km/h
264 04-05-2019 21:55:00 6 C 5.95 g/m*3 4.75 C 6.4 km/h
265 04-05-2019 22:00:00 5.8 C 5.95 g/m*3 4.52 C 6.4 km/h
266 04-05-2019 22:05:00 5.6 C 5.87 g/m*3 5.6 C 4.8 km/h
267 04-05-2019 22:10:00 5.5 C 5.9 g/m*3 3.7 C 8.1 km/h
268 04-05-2019 22:15:00 5.3 C 5.82 g/m*3 3.46 C 8.1 km/h
269 04-05-2019 22:20:00 5.3 C 5.82 g/m*3 3.94 C 6.4 km/h
270 04-05-2019 22:25:00 5.1 C 5.81 g/m*3 3.71 C 6.4 km/h
271 04-05-2019 22:30:00 5 C 5.78 g/m*3 5 C 1.6 km/h
272 04-05-2019 22:35:00 4.8 C 5.77 g/m*3 4.8 C 0 km/h
273 04-05-2019 22:40:00 4.7 C 5.73 g/m*3 4.7 C 0 km/h
274 04-05-2019 22:45:00 4.5 C 5.65 g/m*3 4.5 C 0 km/h
275 04-05-2019 22:50:00 4.3 C 5.64 g/m*3 4.3 C 0 km/h
Sensor: Nr:Datum:Temp:Abs-Feuchte:Windchill:Wind:
Aussen-T/F 276 04-05-2019 22:55:00 4.2 C 5.61 g/m*3 4.2 C 0 km/h
277 04-05-2019 23:00:00 4 C 5.59 g/m*3 4 C 4.8 km/h
278 04-05-2019 23:05:00 3.9 C 5.62 g/m*3 2.32 C 6.4 km/h
279 04-05-2019 23:10:00 3.9 C 5.62 g/m*3 2.32 C 6.4 km/h
280 04-05-2019 23:15:00 3.9 C 5.62 g/m*3 3.9 C 3.2 km/h
281 04-05-2019 23:20:00 3.8 C 5.65 g/m*3 3.8 C 1.6 km/h
282 04-05-2019 23:25:00 3.8 C 5.65 g/m*3 3.8 C 0 km/h
283 04-05-2019 23:30:00 3.8 C 5.65 g/m*3 1.7 C 8.1 km/h
284 04-05-2019 23:35:00 3.8 C 5.65 g/m*3 3.8 C 1.6 km/h
285 04-05-2019 23:40:00 3.7 C 5.61 g/m*3 3.7 C 3.2 km/h
286 04-05-2019 23:45:00 3.7 C 5.61 g/m*3 3.7 C 0 km/h
287 04-05-2019 23:50:00 3.7 C 5.61 g/m*3 3.7 C 0 km/h
288 04-05-2019 23:55:00 3.6 C 5.63 g/m*3 3.6 C 0 km/h
289 05-05-2019 00:00:00 3.6 C 5.63 g/m*3 3.6 C 0 km/h
290 05-05-2019 00:05:00 3.6 C 5.63 g/m*3 3.6 C 0 km/h
291 05-05-2019 00:10:00 3.6 C 5.63 g/m*3 3.6 C 0 km/h
292 05-05-2019 00:15:00 3.7 C 5.73 g/m*3 3.7 C 3.2 km/h
293 05-05-2019 00:20:00 3.7 C 5.73 g/m*3 3.7 C 0 km/h
294 05-05-2019 00:25:00 3.7 C 5.73 g/m*3 3.7 C 0 km/h
295 05-05-2019 00:30:00 3.8 C 5.77 g/m*3 1.7 C 8.1 km/h
296 05-05-2019 00:35:00 3.8 C 5.77 g/m*3 3.8 C 0 km/h
297 05-05-2019 00:40:00 3.8 C 5.77 g/m*3 3.8 C 1.6 km/h
298 05-05-2019 00:45:00 3.8 C 5.77 g/m*3 3.8 C 4.8 km/h
299 05-05-2019 00:50:00 3.8 C 5.77 g/m*3 3.8 C 3.2 km/h
300 05-05-2019 00:55:00 3.7 C 5.73 g/m*3 3.7 C 4.8 km/h
Sensor: Nr:Datum:Temp:Abs-Feuchte:Windchill:Wind:
Aussen-T/F 301 05-05-2019 01:00:00 3.8 C 5.77 g/m*3 3.8 C 0 km/h
302 05-05-2019 01:05:00 3.7 C 5.73 g/m*3 3.7 C 3.2 km/h
303 05-05-2019 01:10:00 3.7 C 5.73 g/m*3 3.7 C 0 km/h
304 05-05-2019 01:15:00 3.7 C 5.73 g/m*3 3.7 C 0 km/h
305 05-05-2019 01:20:00 3.7 C 5.8 g/m*3 3.7 C 0 km/h
306 05-05-2019 01:25:00 3.8 C 5.83 g/m*3 3.8 C 0 km/h
307 05-05-2019 01:30:00 3.9 C 5.87 g/m*3 3.9 C 1.6 km/h
308 05-05-2019 01:35:00 3.9 C 5.87 g/m*3 3.9 C 0 km/h
309 05-05-2019 01:40:00 3.9 C 5.87 g/m*3 3.9 C 0 km/h
310 05-05-2019 01:45:00 3.9 C 5.87 g/m*3 3.9 C 0 km/h
311 05-05-2019 01:50:00 3.9 C 5.87 g/m*3 3.9 C 0 km/h
312 05-05-2019 01:55:00 3.8 C 5.83 g/m*3 3.8 C 1.6 km/h
313 05-05-2019 02:00:00 3.8 C 5.83 g/m*3 3.8 C 0 km/h
314 05-05-2019 02:05:00 3.7 C 5.8 g/m*3 3.7 C 0 km/h
315 05-05-2019 02:10:00 3.6 C 5.69 g/m*3 3.6 C 0 km/h
316 05-05-2019 02:15:00 3.5 C 5.66 g/m*3 3.5 C 0 km/h
317 05-05-2019 02:20:00 3.4 C 5.62 g/m*3 3.4 C 0 km/h
318 05-05-2019 02:25:00 3.3 C 5.58 g/m*3 3.3 C 0 km/h
319 05-05-2019 02:30:00 3.3 C 5.64 g/m*3 3.3 C 4.8 km/h
320 05-05-2019 02:35:00 3.4 C 5.68 g/m*3 3.4 C 3.2 km/h
321 05-05-2019 02:40:00 3.4 C 5.68 g/m*3 3.4 C 1.6 km/h
322 05-05-2019 02:45:00 3.4 C 5.68 g/m*3 3.4 C 0 km/h
323 05-05-2019 02:50:00 3.4 C 5.68 g/m*3 3.4 C 0 km/h
324 05-05-2019 02:55:00 3.3 C 5.64 g/m*3 3.3 C 0 km/h
325 05-05-2019 03:00:00 3.3 C 5.64 g/m*3 3.3 C 0 km/h
Sensor: Nr:Datum:Temp:Abs-Feuchte:Windchill:Wind:
Aussen-T/F 326 05-05-2019 03:05:00 3.4 C 5.74 g/m*3 3.4 C 1.6 km/h
327 05-05-2019 03:10:00 3.5 C 5.78 g/m*3 3.5 C 1.6 km/h
328 05-05-2019 03:15:00 3.6 C 5.82 g/m*3 3.6 C 0 km/h
329 05-05-2019 03:20:00 3.7 C 5.86 g/m*3 3.7 C 0 km/h
330 05-05-2019 03:25:00 3.7 C 5.86 g/m*3 3.7 C 1.6 km/h
331 05-05-2019 03:30:00 3.8 C 5.9 g/m*3 3.8 C 0 km/h
332 05-05-2019 03:35:00 3.8 C 5.9 g/m*3 3.8 C 0 km/h
333 05-05-2019 03:40:00 3.8 C 5.9 g/m*3 3.8 C 0 km/h
334 05-05-2019 03:45:00 3.9 C 5.94 g/m*3 3.9 C 0 km/h
335 05-05-2019 03:50:00 3.9 C 5.87 g/m*3 3.9 C 4.8 km/h
336 05-05-2019 03:55:00 3.8 C 5.83 g/m*3 3.8 C 3.2 km/h
337 05-05-2019 04:00:00 3.8 C 5.83 g/m*3 3.8 C 0 km/h
338 05-05-2019 04:05:00 3.8 C 5.83 g/m*3 3.8 C 4.8 km/h
339 05-05-2019 04:10:00 3.8 C 5.83 g/m*3 3.8 C 0 km/h
340 05-05-2019 04:15:00 3.7 C 5.8 g/m*3 3.7 C 0 km/h
341 05-05-2019 04:20:00 3.7 C 5.8 g/m*3 3.7 C 3.2 km/h
342 05-05-2019 04:25:00 3.7 C 5.8 g/m*3 3.7 C 1.6 km/h
343 05-05-2019 04:30:00 3.7 C 5.8 g/m*3 3.7 C 0 km/h
344 05-05-2019 04:35:00 3.7 C 5.8 g/m*3 3.7 C 4.8 km/h
345 05-05-2019 04:40:00 3.6 C 5.76 g/m*3 1.98 C 6.4 km/h
346 05-05-2019 04:45:00 3.6 C 5.69 g/m*3 1.98 C 6.4 km/h
347 05-05-2019 04:50:00 3.6 C 5.69 g/m*3 3.6 C 1.6 km/h
348 05-05-2019 04:55:00 3.6 C 5.69 g/m*3 3.6 C 4.8 km/h
349 05-05-2019 05:00:00 3.5 C 5.66 g/m*3 3.5 C 3.2 km/h
350 05-05-2019 05:05:00 3.5 C 5.66 g/m*3 3.5 C 1.6 km/h
Sensor: Nr:Datum:Temp:Abs-Feuchte:Windchill:Wind:
Aussen-T/F 351 05-05-2019 05:10:00 3.4 C 5.62 g/m*3 3.4 C 0 km/h
352 05-05-2019 05:15:00 3.4 C 5.62 g/m*3 1.23 C 8.1 km/h
353 05-05-2019 05:20:00 3.3 C 5.58 g/m*3 0.7 C 9.7 km/h
354 05-05-2019 05:25:00 3.3 C 5.58 g/m*3 0.7 C 9.7 km/h
355 05-05-2019 05:30:00 3.3 C 5.58 g/m*3 3.3 C 1.6 km/h
356 05-05-2019 05:35:00 3.3 C 5.58 g/m*3 3.3 C 4.8 km/h
357 05-05-2019 05:40:00 3.3 C 5.58 g/m*3 3.3 C 0 km/h
358 05-05-2019 05:45:00 3.3 C 5.58 g/m*3 3.3 C 1.6 km/h
359 05-05-2019 05:50:00 3.2 C 5.54 g/m*3 3.2 C 3.2 km/h
360 05-05-2019 05:55:00 3.2 C 5.54 g/m*3 3.2 C 0 km/h
361 05-05-2019 06:00:00 3.1 C 5.51 g/m*3 3.1 C 4.8 km/h
362 05-05-2019 06:05:00 3.1 C 5.51 g/m*3 3.1 C 0 km/h
363 05-05-2019 06:10:00 3 C 5.47 g/m*3 3 C 0 km/h
364 05-05-2019 06:15:00 2.9 C 5.43 g/m*3 2.9 C 0 km/h
365 05-05-2019 06:20:00 2.8 C 5.4 g/m*3 2.8 C 0 km/h
366 05-05-2019 06:25:00 2.7 C 5.36 g/m*3 2.7 C 0 km/h
367 05-05-2019 06:30:00 2.7 C 5.36 g/m*3 2.7 C 0 km/h
368 05-05-2019 06:35:00 2.6 C 5.32 g/m*3 2.6 C 0 km/h
369 05-05-2019 06:40:00 2.5 C 5.29 g/m*3 2.5 C 0 km/h
370 05-05-2019 06:45:00 2.5 C 5.29 g/m*3 2.5 C 0 km/h
371 05-05-2019 06:50:00 2.5 C 5.29 g/m*3 2.5 C 0 km/h
372 05-05-2019 06:55:00 2.4 C 5.31 g/m*3 2.4 C 0 km/h
373 05-05-2019 07:00:00 2.4 C 5.31 g/m*3 2.4 C 0 km/h
374 05-05-2019 07:05:00 2.4 C 5.31 g/m*3 2.4 C 0 km/h
375 05-05-2019 07:10:00 2.4 C 5.31 g/m*3 2.4 C 0 km/h
Sensor: Nr:Datum:Temp:Abs-Feuchte:Windchill:Wind:
Aussen-T/F 376 05-05-2019 07:15:00 2.3 C 5.27 g/m*3 2.3 C 0 km/h
377 05-05-2019 07:20:00 2.3 C 5.27 g/m*3 2.3 C 0 km/h
378 05-05-2019 07:25:00 2.3 C 5.27 g/m*3 2.3 C 0 km/h
379 05-05-2019 07:30:00 2.3 C 5.27 g/m*3 2.3 C 0 km/h
380 05-05-2019 07:35:00 2.3 C 5.27 g/m*3 2.3 C 0 km/h
381 05-05-2019 07:40:00 2.5 C 5.4 g/m*3 2.5 C 0 km/h
382 05-05-2019 07:45:00 2.7 C 5.48 g/m*3 2.7 C 0 km/h
383 05-05-2019 07:50:00 2.8 C 5.51 g/m*3 2.8 C 0 km/h
384 05-05-2019 07:55:00 2.9 C 5.55 g/m*3 2.9 C 3.2 km/h
385 05-05-2019 08:00:00 2.9 C 5.55 g/m*3 2.9 C 4.8 km/h
386 05-05-2019 08:05:00 3 C 5.59 g/m*3 3 C 3.2 km/h
387 05-05-2019 08:10:00 3.1 C 5.63 g/m*3 3.1 C 3.2 km/h
388 05-05-2019 08:15:00 3.1 C 5.63 g/m*3 3.1 C 4.8 km/h
389 05-05-2019 08:20:00 3.2 C 5.66 g/m*3 1.51 C 6.4 km/h
390 05-05-2019 08:25:00 3.3 C 5.7 g/m*3 1.11 C 8.1 km/h
391 05-05-2019 08:30:00 3.3 C 5.7 g/m*3 1.63 C 6.4 km/h
392 05-05-2019 08:35:00 3.4 C 5.74 g/m*3 1.75 C 6.4 km/h
393 05-05-2019 08:40:00 3.6 C 5.82 g/m*3 3.6 C 3.2 km/h
394 05-05-2019 08:45:00 3.7 C 5.86 g/m*3 2.09 C 6.4 km/h
395 05-05-2019 08:50:00 3.8 C 5.9 g/m*3 2.21 C 6.4 km/h
396 05-05-2019 08:55:00 3.9 C 5.94 g/m*3 2.32 C 6.4 km/h
397 05-05-2019 09:00:00 3.9 C 5.94 g/m*3 3.9 C 4.8 km/h
398 05-05-2019 09:05:00 4.1 C 6.02 g/m*3 1.65 C 9.7 km/h
399 05-05-2019 09:10:00 4.1 C 5.95 g/m*3 2.05 C 8.1 km/h
400 05-05-2019 09:15:00 4.3 C 6.03 g/m*3 4.3 C 4.8 km/h
Sensor: Nr:Datum:Temp:Abs-Feuchte:Windchill:Wind:
Aussen-T/F 401 05-05-2019 09:20:00 4.5 C 6.05 g/m*3 4.5 C 4.8 km/h
402 05-05-2019 09:25:00 4.7 C 6.06 g/m*3 3.25 C 6.4 km/h
403 05-05-2019 09:30:00 4.9 C 6.14 g/m*3 4.9 C 4.8 km/h
404 05-05-2019 09:35:00 5.1 C 6.09 g/m*3 5.1 C 3.2 km/h
405 05-05-2019 09:40:00 5.2 C 6.13 g/m*3 5.2 C 0 km/h
406 05-05-2019 09:45:00 5.3 C 6.1 g/m*3 5.3 C 4.8 km/h
407 05-05-2019 09:50:00 5.3 C 6.17 g/m*3 5.3 C 0 km/h
408 05-05-2019 09:55:00 5.4 C 6.14 g/m*3 5.4 C 0 km/h
409 05-05-2019 10:00:00 5.4 C 6.07 g/m*3 5.4 C 1.6 km/h
410 05-05-2019 10:05:00 5.5 C 6.11 g/m*3 5.5 C 3.2 km/h
411 05-05-2019 10:10:00 5.6 C 6.15 g/m*3 5.6 C 4.8 km/h
412 05-05-2019 10:15:00 5.6 C 6.15 g/m*3 4.29 C 6.4 km/h
413 05-05-2019 10:20:00 5.6 C 6.08 g/m*3 3.81 C 8.1 km/h
414 05-05-2019 10:25:00 5.7 C 6.12 g/m*3 5.7 C 4.8 km/h
415 05-05-2019 10:30:00 5.7 C 6.19 g/m*3 5.7 C 3.2 km/h
416 05-05-2019 10:35:00 5.9 C 6.27 g/m*3 4.17 C 8.1 km/h
417 05-05-2019 10:40:00 5.9 C 6.27 g/m*3 3.8 C 9.7 km/h
418 05-05-2019 10:45:00 6.2 C 6.32 g/m*3 4.98 C 6.4 km/h
419 05-05-2019 10:50:00 6.4 C 6.41 g/m*3 4.39 C 9.7 km/h
420 05-05-2019 10:55:00 6.6 C 6.42 g/m*3 4.99 C 8.1 km/h
421 05-05-2019 11:00:00 6.6 C 6.27 g/m*3 4.32 C 11.3 km/h
422 05-05-2019 11:05:00 6.6 C 6.34 g/m*3 5.44 C 6.4 km/h
423 05-05-2019 11:10:00 6.6 C 6.34 g/m*3 4.63 C 9.7 km/h
424 05-05-2019 11:15:00 6.7 C 6.31 g/m*3 5.56 C 6.4 km/h
425 05-05-2019 11:20:00 6.8 C 6.42 g/m*3 5.67 C 6.4 km/h
Sensor: Nr:Datum:Temp:Abs-Feuchte:Windchill:Wind:
Aussen-T/F 426 05-05-2019 11:25:00 6.9 C 6.47 g/m*3 5.79 C 6.4 km/h
427 05-05-2019 11:30:00 7.2 C 6.67 g/m*3 6.13 C 6.4 km/h
428 05-05-2019 11:35:00 7.3 C 6.64 g/m*3 5.81 C 8.1 km/h
429 05-05-2019 11:40:00 7.3 C 6.56 g/m*3 6.25 C 6.4 km/h
430 05-05-2019 11:45:00 7.3 C 6.48 g/m*3 7.3 C 4.8 km/h
431 05-05-2019 11:50:00 7.2 C 6.52 g/m*3 5.69 C 8.1 km/h
432 05-05-2019 11:55:00 7.3 C 6.56 g/m*3 6.25 C 6.4 km/h
433 05-05-2019 12:00:00 7.2 C 6.44 g/m*3 6.13 C 6.4 km/h
434 05-05-2019 12:05:00 7.3 C 6.48 g/m*3 6.25 C 6.4 km/h
435 05-05-2019 12:10:00 7.3 C 6.48 g/m*3 6.25 C 6.4 km/h
436 05-05-2019 12:15:00 7.3 C 6.4 g/m*3 6.25 C 6.4 km/h
437 05-05-2019 12:20:00 7.4 C 6.44 g/m*3 5.93 C 8.1 km/h
438 05-05-2019 12:25:00 7.7 C 6.65 g/m*3 5.65 C 11.3 km/h
439 05-05-2019 12:30:00 7.8 C 6.61 g/m*3 6.83 C 6.4 km/h
440 05-05-2019 12:35:00 7.9 C 6.57 g/m*3 6.18 C 9.7 km/h
441 05-05-2019 12:40:00 7.9 C 6.49 g/m*3 5.39 C 14.5 km/h
442 05-05-2019 12:45:00 7.8 C 6.45 g/m*3 6.83 C 6.4 km/h
443 05-05-2019 12:50:00 7.9 C 6.57 g/m*3 7.9 C 4.8 km/h
444 05-05-2019 12:55:00 8.1 C 6.57 g/m*3 6.75 C 8.1 km/h
445 05-05-2019 13:00:00 8.2 C 6.7 g/m*3 8.2 C 4.8 km/h
446 05-05-2019 13:05:00 8.3 C 6.66 g/m*3 8.3 C 4.8 km/h
447 05-05-2019 13:10:00 8.5 C 6.66 g/m*3 7.22 C 8.1 km/h
448 05-05-2019 13:15:00 8.7 C 6.4 g/m*3 6.85 C 11.3 km/h
449 05-05-2019 13:20:00 8.8 C 6.44 g/m*3 7.98 C 6.4 km/h
450 05-05-2019 13:25:00 8.9 C 6.31 g/m*3 6.85 C 12.9 km/h
Sensor: Nr:Datum:Temp:Abs-Feuchte:Windchill:Wind:
Aussen-T/F 451 05-05-2019 13:30:00 8.9 C 6.39 g/m*3 6.85 C 12.9 km/h
452 05-05-2019 13:35:00 9.1 C 6.3 g/m*3 7.33 C 11.3 km/h
453 05-05-2019 13:40:00 9.3 C 6.29 g/m*3 7.58 C 11.3 km/h
454 05-05-2019 13:45:00 9.4 C 6.33 g/m*3 7.46 C 12.9 km/h
455 05-05-2019 13:50:00 9.5 C 6.28 g/m*3 8.79 C 6.4 km/h
456 05-05-2019 13:55:00 9.4 C 6.15 g/m*3 7.97 C 9.7 km/h
457 05-05-2019 14:00:00 9.5 C 6.19 g/m*3 7.58 C 12.9 km/h
458 05-05-2019 14:05:00 9.8 C 6.31 g/m*3 8.18 C 11.3 km/h
459 05-05-2019 14:10:00 10 C 6.11 g/m*3 7.78 C 16.1 km/h
460 05-05-2019 14:15:00 10.1 C 6.15 g/m*3 9.1 C 8.1 km/h
461 05-05-2019 14:20:00 10 C 6.11 g/m*3 8.19 C 12.9 km/h
462 05-05-2019 14:25:00 9.9 C 6.16 g/m*3 8.56 C 9.7 km/h
463 05-05-2019 14:30:00 9.6 C 6.41 g/m*3 7.94 C 11.3 km/h
464 05-05-2019 14:35:00 9.1 C 6.48 g/m*3 7.09 C 12.9 km/h
465 05-05-2019 14:40:00 8.8 C 6.61 g/m*3 6.3 C 16.1 km/h
466 05-05-2019 14:45:00 8.4 C 6.53 g/m*3 6.24 C 12.9 km/h
467 05-05-2019 14:50:00 8.2 C 6.53 g/m*3 6.25 C 11.3 km/h
468 05-05-2019 14:55:00 8.1 C 6.49 g/m*3 6.13 C 11.3 km/h
469 05-05-2019 15:00:00 8.2 C 6.62 g/m*3 8.2 C 3.2 km/h
470 05-05-2019 15:05:00 8.3 C 6.57 g/m*3 8.3 C 0 km/h
471 05-05-2019 15:10:00 8.7 C 6.66 g/m*3 8.7 C 0 km/h
472 05-05-2019 15:15:00 9.1 C 6.57 g/m*3 9.1 C 4.8 km/h
473 05-05-2019 15:20:00 9.3 C 6.65 g/m*3 9.3 C 4.8 km/h
474 05-05-2019 15:25:00 9.8 C 6.59 g/m*3 9.14 C 6.4 km/h
475 05-05-2019 15:30:00 10.3 C 6.7 g/m*3 9.34 C 8.1 km/h
Sensor: Nr:Datum:Temp:Abs-Feuchte:Windchill:Wind:
Aussen-T/F 476 05-05-2019 15:35:00 10.8 C 6.23 g/m*3 10.29 C 6.4 km/h
477 05-05-2019 15:40:00 10.8 C 5.93 g/m*3 9.64 C 9.7 km/h
478 05-05-2019 15:45:00 10.8 C 5.93 g/m*3 9.16 C 12.9 km/h
479 05-05-2019 15:50:00 11 C 6.01 g/m*3 9.63 C 11.3 km/h
480 05-05-2019 15:55:00 11.3 C 6.22 g/m*3 11.3 C 9.7 km/h
481 05-05-2019 16:00:00 11.5 C 5.99 g/m*3 11.5 C 16.1 km/h
482 05-05-2019 16:05:00 11.7 C 6.07 g/m*3 11.7 C 16.1 km/h
483 05-05-2019 16:10:00 11.8 C 6.21 g/m*3 11.8 C 16.1 km/h
484 05-05-2019 16:15:00 12.2 C 6.47 g/m*3 12.2 C 11.3 km/h
485 05-05-2019 16:20:00 12.3 C 6.08 g/m*3 12.3 C 12.9 km/h
486 05-05-2019 16:25:00 12.3 C 6.08 g/m*3 12.3 C 11.3 km/h
487 05-05-2019 16:30:00 12.4 C 6.45 g/m*3 12.4 C 9.7 km/h
488 05-05-2019 16:35:00 12.7 C 6.57 g/m*3 12.7 C 9.7 km/h
489 05-05-2019 16:40:00 12.9 C 6.42 g/m*3 12.9 C 9.7 km/h
490 05-05-2019 16:45:00 13.2 C 6.2 g/m*3 13.2 C 11.3 km/h
491 05-05-2019 16:50:00 13.1 C 6.39 g/m*3 13.1 C 12.9 km/h
492 05-05-2019 16:55:00 12.6 C 6.53 g/m*3 12.6 C 12.9 km/h
493 05-05-2019 17:00:00 11.8 C 6.42 g/m*3 11.8 C 11.3 km/h
494 05-05-2019 17:05:00 11.6 C 6.55 g/m*3 11.6 C 11.3 km/h
495 05-05-2019 17:10:00 11.7 C 6.48 g/m*3 11.7 C 9.7 km/h
496 05-05-2019 17:15:00 12.2 C 6.58 g/m*3 12.2 C 8.1 km/h
497 05-05-2019 17:20:00 12.3 C 6.41 g/m*3 12.3 C 11.3 km/h
498 05-05-2019 17:25:00 12.4 C 6.23 g/m*3 12.4 C 9.7 km/h
499 05-05-2019 17:30:00 12.8 C 6.61 g/m*3 12.8 C 12.9 km/h
500 05-05-2019 17:35:00 13.1 C 6.5 g/m*3 13.1 C 14.5 km/h
Sensor: Nr:Datum:Temp:Abs-Feuchte:Windchill:Wind:
Aussen-T/F 501 05-05-2019 17:40:00 13.1 C 6.39 g/m*3 13.1 C 17.7 km/h
502 05-05-2019 17:45:00 13.2 C 6.54 g/m*3 13.2 C 12.9 km/h
503 05-05-2019 17:50:00 13.3 C 6.59 g/m*3 13.3 C 9.7 km/h
504 05-05-2019 17:55:00 13.2 C 6.43 g/m*3 13.2 C 12.9 km/h
505 05-05-2019 18:00:00 13.4 C 6.63 g/m*3 13.4 C 14.5 km/h
506 05-05-2019 18:05:00 13.4 C 6.51 g/m*3 13.4 C 14.5 km/h
507 05-05-2019 18:10:00 12.8 C 6.5 g/m*3 12.8 C 9.7 km/h
508 05-05-2019 18:15:00 11.7 C 6.59 g/m*3 11.7 C 14.5 km/h
509 05-05-2019 18:20:00 11 C 6.51 g/m*3 9.4 C 12.9 km/h
510 05-05-2019 18:25:00 10.4 C 6.46 g/m*3 9.83 C 6.4 km/h
511 05-05-2019 18:30:00 10.3 C 6.61 g/m*3 9.34 C 8.1 km/h
512 05-05-2019 18:35:00 10.3 C 6.7 g/m*3 9.34 C 8.1 km/h
513 05-05-2019 18:40:00 10.6 C 6.83 g/m*3 8.92 C 12.9 km/h
514 05-05-2019 18:45:00 10.8 C 6.52 g/m*3 9.38 C 11.3 km/h
515 05-05-2019 18:50:00 10.6 C 6.54 g/m*3 9.4 C 9.7 km/h
516 05-05-2019 18:55:00 10.3 C 6.42 g/m*3 9.72 C 6.4 km/h
517 05-05-2019 19:00:00 10.1 C 6.43 g/m*3 9.1 C 8.1 km/h
518 05-05-2019 19:05:00 9.8 C 6.31 g/m*3 8.18 C 11.3 km/h
519 05-05-2019 19:10:00 9.7 C 6.45 g/m*3 9.7 C 4.8 km/h
520 05-05-2019 19:15:00 9.7 C 6.45 g/m*3 8.63 C 8.1 km/h
521 05-05-2019 19:20:00 9.6 C 6.41 g/m*3 9.6 C 3.2 km/h
522 05-05-2019 19:25:00 9.6 C 6.41 g/m*3 9.6 C 4.8 km/h
523 05-05-2019 19:30:00 9.6 C 6.5 g/m*3 8.52 C 8.1 km/h
524 05-05-2019 19:35:00 9.6 C 6.41 g/m*3 8.52 C 8.1 km/h
525 05-05-2019 19:40:00 9.6 C 6.5 g/m*3 8.52 C 8.1 km/h
Sensor: Nr:Datum:Temp:Abs-Feuchte:Windchill:Wind:
Aussen-T/F 526 05-05-2019 19:45:00 9.6 C 6.5 g/m*3 8.91 C 6.4 km/h
527 05-05-2019 19:50:00 9.6 C 6.6 g/m*3 8.91 C 6.4 km/h
528 05-05-2019 19:55:00 9.5 C 6.46 g/m*3 7.82 C 11.3 km/h
529 05-05-2019 20:00:00 9.5 C 6.46 g/m*3 7.82 C 11.3 km/h
530 05-05-2019 20:05:00 9.4 C 6.42 g/m*3 7.46 C 12.9 km/h
531 05-05-2019 20:10:00 9.4 C 6.42 g/m*3 7.97 C 9.7 km/h
532 05-05-2019 20:15:00 9.3 C 6.29 g/m*3 7.85 C 9.7 km/h
533 05-05-2019 20:20:00 9.3 C 6.38 g/m*3 8.56 C 6.4 km/h
534 05-05-2019 20:25:00 9.3 C 6.38 g/m*3 9.3 C 4.8 km/h
535 05-05-2019 20:30:00 9.2 C 6.34 g/m*3 8.45 C 6.4 km/h
536 05-05-2019 20:35:00 9.2 C 6.43 g/m*3 9.2 C 4.8 km/h
537 05-05-2019 20:40:00 9.1 C 6.48 g/m*3 7.09 C 12.9 km/h
538 05-05-2019 20:45:00 8.9 C 6.39 g/m*3 8.1 C 6.4 km/h
539 05-05-2019 20:50:00 8.9 C 6.48 g/m*3 8.9 C 4.8 km/h
540 05-05-2019 20:55:00 8.8 C 6.53 g/m*3 8.8 C 4.8 km/h
541 05-05-2019 21:00:00 8.7 C 6.57 g/m*3 8.7 C 4.8 km/h
542 05-05-2019 21:05:00 8.6 C 6.44 g/m*3 7.01 C 9.7 km/h
543 05-05-2019 21:10:00 8.6 C 6.62 g/m*3 8.6 C 0 km/h
544 05-05-2019 21:15:00 8.4 C 6.53 g/m*3 8.4 C 3.2 km/h
545 05-05-2019 21:20:00 8.3 C 6.41 g/m*3 8.3 C 4.8 km/h
546 05-05-2019 21:25:00 8.2 C 6.36 g/m*3 8.2 C 4.8 km/h
547 05-05-2019 21:30:00 8.2 C 6.36 g/m*3 7.29 C 6.4 km/h
548 05-05-2019 21:35:00 8.2 C 6.36 g/m*3 7.29 C 6.4 km/h
549 05-05-2019 21:40:00 8.1 C 6.24 g/m*3 8.1 C 4.8 km/h
550 05-05-2019 21:45:00 8 C 6.28 g/m*3 8 C 4.8 km/h
Sensor: Nr:Datum:Temp:Abs-Feuchte:Windchill:Wind:
Aussen-T/F 551 05-05-2019 21:50:00 8 C 6.37 g/m*3 8 C 4.8 km/h
552 05-05-2019 21:55:00 7.9 C 6.24 g/m*3 6.94 C 6.4 km/h
553 05-05-2019 22:00:00 7.9 C 6.24 g/m*3 6.94 C 6.4 km/h
554 05-05-2019 22:05:00 7.8 C 6.2 g/m*3 6.06 C 9.7 km/h
555 05-05-2019 22:10:00 7.7 C 6.32 g/m*3 7.7 C 0 km/h
556 05-05-2019 22:15:00 7.6 C 6.36 g/m*3 7.6 C 0 km/h
557 05-05-2019 22:20:00 7.3 C 6.24 g/m*3 7.3 C 4.8 km/h
558 05-05-2019 22:25:00 7.2 C 6.28 g/m*3 7.2 C 4.8 km/h
559 05-05-2019 22:30:00 7.1 C 6.32 g/m*3 7.1 C 0 km/h
560 05-05-2019 22:35:00 6.9 C 6.24 g/m*3 6.9 C 0 km/h
561 05-05-2019 22:40:00 6.8 C 6.27 g/m*3 6.8 C 0 km/h
562 05-05-2019 22:45:00 6.6 C 6.27 g/m*3 6.6 C 0 km/h
563 05-05-2019 22:50:00 6.5 C 6.22 g/m*3 6.5 C 4.8 km/h
564 05-05-2019 22:55:00 6.4 C 6.26 g/m*3 6.4 C 0 km/h
565 05-05-2019 23:00:00 6.4 C 6.26 g/m*3 6.4 C 0 km/h
566 05-05-2019 23:05:00 6.3 C 6.29 g/m*3 6.3 C 0 km/h
567 05-05-2019 23:10:00 6.3 C 6.29 g/m*3 6.3 C 1.6 km/h
568 05-05-2019 23:15:00 6.3 C 6.29 g/m*3 6.3 C 1.6 km/h
569 05-05-2019 23:20:00 6.3 C 6.29 g/m*3 6.3 C 0 km/h
570 05-05-2019 23:25:00 6.3 C 6.29 g/m*3 6.3 C 1.6 km/h
571 05-05-2019 23:30:00 6.2 C 6.25 g/m*3 6.2 C 0 km/h
572 05-05-2019 23:35:00 6.2 C 6.32 g/m*3 6.2 C 0 km/h
573 05-05-2019 23:40:00 6.2 C 6.32 g/m*3 6.2 C 0 km/h
574 05-05-2019 23:45:00 6.2 C 6.32 g/m*3 6.2 C 0 km/h
575 05-05-2019 23:50:00 6.2 C 6.32 g/m*3 6.2 C 0 km/h
Sensor: Nr:Datum:Temp:Abs-Feuchte:Windchill:Wind:
Aussen-T/F 576 05-05-2019 23:55:00 6.1 C 6.28 g/m*3 6.1 C 0 km/h
577 06-05-2019 00:00:00 6.1 C 6.28 g/m*3 6.1 C 0 km/h
578 06-05-2019 00:05:00 6.1 C 6.28 g/m*3 6.1 C 0 km/h
579 06-05-2019 00:10:00 6.1 C 6.28 g/m*3 6.1 C 0 km/h
580 06-05-2019 00:15:00 6.1 C 6.28 g/m*3 6.1 C 0 km/h
581 06-05-2019 00:20:00 6.1 C 6.36 g/m*3 6.1 C 0 km/h
582 06-05-2019 00:25:00 6.1 C 6.36 g/m*3 6.1 C 3.2 km/h
583 06-05-2019 00:30:00 6.2 C 6.4 g/m*3 6.2 C 0 km/h
584 06-05-2019 00:35:00 6.2 C 6.32 g/m*3 6.2 C 0 km/h
585 06-05-2019 00:40:00 6.1 C 6.28 g/m*3 6.1 C 0 km/h
586 06-05-2019 00:45:00 6.1 C 6.36 g/m*3 6.1 C 0 km/h
587 06-05-2019 00:50:00 6.1 C 6.36 g/m*3 6.1 C 0 km/h
588 06-05-2019 00:55:00 6.1 C 6.36 g/m*3 6.1 C 0 km/h
589 06-05-2019 01:00:00 6.1 C 6.36 g/m*3 6.1 C 0 km/h
590 06-05-2019 01:05:00 6.1 C 6.36 g/m*3 6.1 C 0 km/h
591 06-05-2019 01:10:00 6.1 C 6.43 g/m*3 6.1 C 0 km/h
592 06-05-2019 01:15:00 6.1 C 6.43 g/m*3 6.1 C 3.2 km/h
593 06-05-2019 01:20:00 6 C 6.39 g/m*3 6 C 1.6 km/h
594 06-05-2019 01:25:00 6 C 6.39 g/m*3 6 C 0 km/h
595 06-05-2019 01:30:00 5.9 C 6.35 g/m*3 5.9 C 4.8 km/h
596 06-05-2019 01:35:00 5.8 C 6.3 g/m*3 5.8 C 0 km/h
597 06-05-2019 01:40:00 5.8 C 6.3 g/m*3 5.8 C 3.2 km/h
598 06-05-2019 01:45:00 5.7 C 6.19 g/m*3 5.7 C 1.6 km/h
599 06-05-2019 01:50:00 5.7 C 6.19 g/m*3 5.7 C 3.2 km/h
600 06-05-2019 01:55:00 5.6 C 6.15 g/m*3 4.29 C 6.4 km/h
Sensor: Nr:Datum:Temp:Abs-Feuchte:Windchill:Wind:
Aussen-T/F 601 06-05-2019 02:00:00 5.6 C 6.15 g/m*3 4.29 C 6.4 km/h
602 06-05-2019 02:05:00 5.6 C 6.15 g/m*3 5.6 C 1.6 km/h
603 06-05-2019 02:10:00 5.4 C 6.07 g/m*3 5.4 C 1.6 km/h
604 06-05-2019 02:15:00 5.3 C 6.03 g/m*3 5.3 C 3.2 km/h
605 06-05-2019 02:20:00 5.3 C 6.1 g/m*3 5.3 C 0 km/h
606 06-05-2019 02:25:00 5.2 C 6.06 g/m*3 5.2 C 1.6 km/h
607 06-05-2019 02:30:00 5.1 C 6.02 g/m*3 5.1 C 3.2 km/h
608 06-05-2019 02:35:00 4.9 C 5.94 g/m*3 4.9 C 0 km/h
609 06-05-2019 02:40:00 4.8 C 5.9 g/m*3 4.8 C 0 km/h
610 06-05-2019 02:45:00 4.7 C 5.93 g/m*3 4.7 C 1.6 km/h
611 06-05-2019 02:50:00 4.7 C 5.93 g/m*3 4.7 C 0 km/h
612 06-05-2019 02:55:00 4.6 C 5.89 g/m*3 4.6 C 0 km/h
613 06-05-2019 03:00:00 4.6 C 5.96 g/m*3 4.6 C 0 km/h
614 06-05-2019 03:05:00 4.6 C 5.96 g/m*3 4.6 C 0 km/h
615 06-05-2019 03:10:00 4.4 C 5.88 g/m*3 4.4 C 0 km/h
616 06-05-2019 03:15:00 4.4 C 5.88 g/m*3 4.4 C 0 km/h
617 06-05-2019 03:20:00 4.3 C 5.84 g/m*3 4.3 C 0 km/h
618 06-05-2019 03:25:00 4.2 C 5.8 g/m*3 4.2 C 1.6 km/h
619 06-05-2019 03:30:00 4.2 C 5.8 g/m*3 4.2 C 0 km/h
620 06-05-2019 03:35:00 4.1 C 5.82 g/m*3 4.1 C 0 km/h
621 06-05-2019 03:40:00 4.1 C 5.82 g/m*3 4.1 C 0 km/h
622 06-05-2019 03:45:00 4.1 C 5.82 g/m*3 4.1 C 1.6 km/h
623 06-05-2019 03:50:00 4.1 C 5.82 g/m*3 4.1 C 0 km/h
624 06-05-2019 03:55:00 4 C 5.79 g/m*3 4 C 0 km/h
625 06-05-2019 04:00:00 3.9 C 5.75 g/m*3 3.9 C 0 km/h
Sensor: Nr:Datum:Temp:Abs-Feuchte:Windchill:Wind:
Aussen-T/F 626 06-05-2019 04:05:00 3.9 C 5.75 g/m*3 3.9 C 0 km/h
627 06-05-2019 04:10:00 3.8 C 5.71 g/m*3 3.8 C 0 km/h
628 06-05-2019 04:15:00 3.8 C 5.71 g/m*3 3.8 C 0 km/h
629 06-05-2019 04:20:00 3.7 C 5.67 g/m*3 3.7 C 0 km/h
630 06-05-2019 04:25:00 3.7 C 5.67 g/m*3 3.7 C 0 km/h
631 06-05-2019 04:30:00 3.6 C 5.63 g/m*3 3.6 C 0 km/h
632 06-05-2019 04:35:00 3.4 C 5.56 g/m*3 3.4 C 0 km/h
633 06-05-2019 04:40:00 3.4 C 5.56 g/m*3 3.4 C 0 km/h
634 06-05-2019 04:45:00 3.3 C 5.58 g/m*3 3.3 C 0 km/h
635 06-05-2019 04:50:00 3.3 C 5.58 g/m*3 3.3 C 0 km/h
636 06-05-2019 04:55:00 3.3 C 5.58 g/m*3 3.3 C 0 km/h
637 06-05-2019 05:00:00 3.3 C 5.58 g/m*3 3.3 C 0 km/h
638 06-05-2019 05:05:00 3.2 C 5.54 g/m*3 3.2 C 1.6 km/h
639 06-05-2019 05:10:00 3.2 C 5.54 g/m*3 3.2 C 0 km/h
640 06-05-2019 05:15:00 3.1 C 5.51 g/m*3 3.1 C 0 km/h
641 06-05-2019 05:20:00 3.1 C 5.51 g/m*3 3.1 C 0 km/h
642 06-05-2019 05:25:00 3 C 5.47 g/m*3 3 C 0 km/h
643 06-05-2019 05:30:00 3 C 5.47 g/m*3 3 C 0 km/h
644 06-05-2019 05:35:00 2.9 C 5.49 g/m*3 2.9 C 1.6 km/h
645 06-05-2019 05:40:00 2.9 C 5.49 g/m*3 2.9 C 0 km/h
646 06-05-2019 05:45:00 2.9 C 5.49 g/m*3 2.9 C 0 km/h
647 06-05-2019 05:50:00 2.8 C 5.46 g/m*3 2.8 C 0 km/h
648 06-05-2019 05:55:00 2.8 C 5.46 g/m*3 2.8 C 1.6 km/h
649 06-05-2019 06:00:00 2.7 C 5.42 g/m*3 2.7 C 0 km/h
650 06-05-2019 06:05:00 2.7 C 5.42 g/m*3 2.7 C 1.6 km/h
Sensor: Nr:Datum:Temp:Abs-Feuchte:Windchill:Wind:
Aussen-T/F 651 06-05-2019 06:10:00 2.7 C 5.42 g/m*3 2.7 C 1.6 km/h
652 06-05-2019 06:15:00 2.8 C 5.51 g/m*3 2.8 C 3.2 km/h
653 06-05-2019 06:20:00 3 C 5.59 g/m*3 3 C 0 km/h
654 06-05-2019 06:25:00 3.2 C 5.66 g/m*3 3.2 C 0 km/h
655 06-05-2019 06:30:00 3.3 C 5.7 g/m*3 3.3 C 1.6 km/h
656 06-05-2019 06:35:00 3.4 C 5.74 g/m*3 3.4 C 3.2 km/h
657 06-05-2019 06:40:00 3.4 C 5.74 g/m*3 3.4 C 1.6 km/h
658 06-05-2019 06:45:00 3.5 C 5.78 g/m*3 3.5 C 3.2 km/h
659 06-05-2019 06:50:00 3.5 C 5.78 g/m*3 3.5 C 3.2 km/h
660 06-05-2019 06:55:00 3.5 C 5.78 g/m*3 3.5 C 4.8 km/h
661 06-05-2019 07:00:00 3.5 C 5.78 g/m*3 3.5 C 1.6 km/h
662 06-05-2019 07:05:00 3.5 C 5.78 g/m*3 3.5 C 1.6 km/h
663 06-05-2019 07:10:00 3.6 C 5.82 g/m*3 3.6 C 3.2 km/h
664 06-05-2019 07:15:00 3.6 C 5.82 g/m*3 3.6 C 3.2 km/h
665 06-05-2019 07:20:00 3.6 C 5.82 g/m*3 3.6 C 4.8 km/h
666 06-05-2019 07:25:00 3.6 C 5.82 g/m*3 1.98 C 6.4 km/h
667 06-05-2019 07:30:00 3.7 C 5.86 g/m*3 2.09 C 6.4 km/h
668 06-05-2019 07:35:00 3.8 C 5.9 g/m*3 3.8 C 3.2 km/h
669 06-05-2019 07:40:00 3.8 C 5.9 g/m*3 2.21 C 6.4 km/h
670 06-05-2019 07:45:00 3.8 C 5.9 g/m*3 3.8 C 4.8 km/h
671 06-05-2019 07:50:00 3.9 C 5.94 g/m*3 1.82 C 8.1 km/h
672 06-05-2019 07:55:00 4.1 C 6.02 g/m*3 2.05 C 8.1 km/h
673 06-05-2019 08:00:00 4.1 C 5.95 g/m*3 2.55 C 6.4 km/h
674 06-05-2019 08:05:00 4.2 C 6.06 g/m*3 4.2 C 4.8 km/h
675 06-05-2019 08:10:00 4.3 C 6.03 g/m*3 4.3 C 4.8 km/h
Sensor: Nr:Datum:Temp:Abs-Feuchte:Windchill:Wind:
Aussen-T/F 676 06-05-2019 08:15:00 4.4 C 6.07 g/m*3 4.4 C 0 km/h
677 06-05-2019 08:20:00 4.5 C 6.11 g/m*3 4.5 C 1.6 km/h
678 06-05-2019 08:25:00 4.6 C 6.15 g/m*3 4.6 C 3.2 km/h
679 06-05-2019 08:30:00 4.6 C 6.09 g/m*3 4.6 C 4.8 km/h
680 06-05-2019 08:35:00 4.7 C 6.13 g/m*3 4.7 C 4.8 km/h
681 06-05-2019 08:40:00 4.7 C 6.13 g/m*3 3.25 C 6.4 km/h
682 06-05-2019 08:45:00 4.8 C 6.1 g/m*3 4.8 C 4.8 km/h
683 06-05-2019 08:50:00 4.9 C 6.14 g/m*3 4.9 C 0 km/h
684 06-05-2019 08:55:00 5 C 6.18 g/m*3 3.59 C 6.4 km/h
685 06-05-2019 09:00:00 5.2 C 6.2 g/m*3 5.2 C 4.8 km/h
686 06-05-2019 09:05:00 5.4 C 6.21 g/m*3 5.4 C 4.8 km/h
687 06-05-2019 09:10:00 5.8 C 6.3 g/m*3 5.8 C 4.8 km/h
688 06-05-2019 09:15:00 6 C 6.24 g/m*3 6 C 3.2 km/h
689 06-05-2019 09:20:00 6.3 C 6.29 g/m*3 6.3 C 4.8 km/h
690 06-05-2019 09:25:00 6.5 C 6.37 g/m*3 6.5 C 4.8 km/h
691 06-05-2019 09:30:00 6.6 C 6.27 g/m*3 6.6 C 1.6 km/h
692 06-05-2019 09:35:00 6.6 C 6.19 g/m*3 6.6 C 1.6 km/h
693 06-05-2019 09:40:00 6.6 C 6.11 g/m*3 6.6 C 4.8 km/h
694 06-05-2019 09:45:00 6.7 C 6.08 g/m*3 6.7 C 1.6 km/h
695 06-05-2019 09:50:00 6.9 C 6.31 g/m*3 5.34 C 8.1 km/h
696 06-05-2019 09:55:00 7.2 C 6.28 g/m*3 6.13 C 6.4 km/h
697 06-05-2019 10:00:00 7.4 C 6.28 g/m*3 5.58 C 9.7 km/h
698 06-05-2019 10:05:00 7.6 C 6.2 g/m*3 6.16 C 8.1 km/h
699 06-05-2019 10:10:00 7.7 C 6.24 g/m*3 6.28 C 8.1 km/h
700 06-05-2019 10:15:00 7.7 C 6 g/m*3 7.7 C 3.2 km/h
Sensor: Nr:Datum:Temp:Abs-Feuchte:Windchill:Wind:
Aussen-T/F 701 06-05-2019 10:20:00 7.8 C 6.04 g/m*3 6.83 C 6.4 km/h
702 06-05-2019 10:25:00 7.9 C 6 g/m*3 7.9 C 4.8 km/h
703 06-05-2019 10:30:00 7.9 C 6 g/m*3 7.9 C 1.6 km/h
704 06-05-2019 10:35:00 8 C 6.12 g/m*3 8 C 3.2 km/h
705 06-05-2019 10:40:00 8.2 C 6.03 g/m*3 6.87 C 8.1 km/h
706 06-05-2019 10:45:00 8.4 C 6.11 g/m*3 7.11 C 8.1 km/h
707 06-05-2019 10:50:00 8.7 C 6.23 g/m*3 7.87 C 6.4 km/h
708 06-05-2019 10:55:00 8.9 C 6.04 g/m*3 8.9 C 4.8 km/h
709 06-05-2019 11:00:00 9.1 C 6.12 g/m*3 9.1 C 4.8 km/h
710 06-05-2019 11:05:00 9.3 C 6.11 g/m*3 9.3 C 0 km/h
711 06-05-2019 11:10:00 9.5 C 5.83 g/m*3 9.5 C 4.8 km/h
712 06-05-2019 11:15:00 9.4 C 5.7 g/m*3 8.68 C 6.4 km/h
713 06-05-2019 11:20:00 9.3 C 5.93 g/m*3 9.3 C 4.8 km/h
714 06-05-2019 11:25:00 9.2 C 6.07 g/m*3 9.2 C 1.6 km/h
715 06-05-2019 11:30:00 9.2 C 6.07 g/m*3 8.45 C 6.4 km/h
716 06-05-2019 11:35:00 9.2 C 5.8 g/m*3 9.2 C 4.8 km/h
717 06-05-2019 11:40:00 9.3 C 6.29 g/m*3 7.85 C 9.7 km/h
718 06-05-2019 11:45:00 9.4 C 6.33 g/m*3 9.4 C 4.8 km/h
719 06-05-2019 11:50:00 9.5 C 5.92 g/m*3 9.5 C 1.6 km/h
720 06-05-2019 11:55:00 9.6 C 5.95 g/m*3 9.6 C 1.6 km/h
721 06-05-2019 12:00:00 9.7 C 5.62 g/m*3 8.33 C 9.7 km/h
722 06-05-2019 12:05:00 9.7 C 5.53 g/m*3 9.02 C 6.4 km/h
723 06-05-2019 12:10:00 9.7 C 5.16 g/m*3 8.63 C 8.1 km/h
724 06-05-2019 12:15:00 9.8 C 5.29 g/m*3 8.45 C 9.7 km/h
725 06-05-2019 12:20:00 9.8 C 5.47 g/m*3 9.8 C 4.8 km/h
Sensor: Nr:Datum:Temp:Abs-Feuchte:Windchill:Wind:
Aussen-T/F 726 06-05-2019 12:25:00 9.9 C 5.51 g/m*3 9.9 C 4.8 km/h
727 06-05-2019 12:30:00 10.1 C 5.86 g/m*3 9.48 C 6.4 km/h
728 06-05-2019 12:35:00 10.3 C 5.84 g/m*3 9.72 C 6.4 km/h
729 06-05-2019 12:40:00 10.3 C 5.55 g/m*3 10.3 C 4.8 km/h
730 06-05-2019 12:45:00 10.3 C 5.75 g/m*3 9.34 C 8.1 km/h
731 06-05-2019 12:50:00 10.4 C 5.88 g/m*3 9.46 C 8.1 km/h
732 06-05-2019 12:55:00 10.6 C 5.86 g/m*3 10.06 C 6.4 km/h
733 06-05-2019 13:00:00 10.6 C 5.76 g/m*3 9.4 C 9.7 km/h
734 06-05-2019 13:05:00 10.7 C 5.6 g/m*3 10.18 C 6.4 km/h
735 06-05-2019 13:10:00 10.7 C 5.99 g/m*3 10.18 C 6.4 km/h
736 06-05-2019 13:15:00 10.9 C 5.67 g/m*3 9.76 C 9.7 km/h
737 06-05-2019 13:20:00 11 C 5.41 g/m*3 9.4 C 12.9 km/h
738 06-05-2019 13:25:00 11 C 5.51 g/m*3 10.16 C 8.1 km/h
739 06-05-2019 13:30:00 11 C 5.61 g/m*3 10.52 C 6.4 km/h
740 06-05-2019 13:35:00 11.1 C 5.54 g/m*3 11.1 C 12.9 km/h
741 06-05-2019 13:40:00 10.9 C 5.37 g/m*3 10.9 C 4.8 km/h
742 06-05-2019 13:45:00 11.1 C 5.74 g/m*3 11.1 C 8.1 km/h
743 06-05-2019 13:50:00 11.2 C 5.47 g/m*3 11.2 C 11.3 km/h
744 06-05-2019 13:55:00 11.2 C 5.47 g/m*3 11.2 C 9.7 km/h
745 06-05-2019 14:00:00 11.2 C 5.57 g/m*3 11.2 C 11.3 km/h
746 06-05-2019 14:05:00 11.1 C 5.24 g/m*3 11.1 C 6.4 km/h
747 06-05-2019 14:10:00 11.3 C 5.51 g/m*3 11.3 C 9.7 km/h
748 06-05-2019 14:15:00 11.4 C 5.54 g/m*3 11.4 C 8.1 km/h
749 06-05-2019 14:20:00 11.3 C 5.41 g/m*3 11.3 C 6.4 km/h
750 06-05-2019 14:25:00 11.4 C 5.75 g/m*3 11.4 C 9.7 km/h
Sensor: Nr:Datum:Temp:Abs-Feuchte:Windchill:Wind:
Aussen-T/F 751 06-05-2019 14:30:00 11.5 C 5.47 g/m*3 11.5 C 6.4 km/h
752 06-05-2019 14:35:00 11.3 C 5.61 g/m*3 11.3 C 14.5 km/h
753 06-05-2019 14:40:00 11.1 C 5.64 g/m*3 11.1 C 11.3 km/h
754 06-05-2019 14:45:00 11.1 C 5.74 g/m*3 11.1 C 8.1 km/h
755 06-05-2019 14:50:00 11.1 C 5.74 g/m*3 11.1 C 6.4 km/h
756 06-05-2019 14:55:00 11.1 C 5.84 g/m*3 11.1 C 12.9 km/h
757 06-05-2019 15:00:00 11.2 C 5.57 g/m*3 11.2 C 8.1 km/h
758 06-05-2019 15:05:00 11.3 C 5.92 g/m*3 11.3 C 8.1 km/h
759 06-05-2019 15:10:00 11.5 C 5.78 g/m*3 11.5 C 9.7 km/h
760 06-05-2019 15:15:00 11.6 C 5.72 g/m*3 11.6 C 6.4 km/h
761 06-05-2019 15:20:00 11.4 C 5.75 g/m*3 11.4 C 11.3 km/h
762 06-05-2019 15:25:00 11.3 C 5.81 g/m*3 11.3 C 9.7 km/h
763 06-05-2019 15:30:00 11.2 C 5.78 g/m*3 11.2 C 11.3 km/h
764 06-05-2019 15:35:00 11.1 C 5.74 g/m*3 11.1 C 9.7 km/h
765 06-05-2019 15:40:00 11.1 C 5.84 g/m*3 11.1 C 11.3 km/h
766 06-05-2019 15:45:00 11.2 C 5.98 g/m*3 11.2 C 8.1 km/h
767 06-05-2019 15:50:00 11.3 C 6.02 g/m*3 11.3 C 8.1 km/h
768 06-05-2019 15:55:00 11.3 C 6.02 g/m*3 11.3 C 8.1 km/h
769 06-05-2019 16:00:00 11.2 C 6.08 g/m*3 11.2 C 6.4 km/h
770 06-05-2019 16:05:00 11.2 C 6.08 g/m*3 11.2 C 11.3 km/h
771 06-05-2019 16:10:00 11.1 C 6.04 g/m*3 11.1 C 11.3 km/h
772 06-05-2019 16:15:00 11.2 C 5.98 g/m*3 11.2 C 9.7 km/h
773 06-05-2019 16:20:00 11.2 C 5.98 g/m*3 11.2 C 11.3 km/h
774 06-05-2019 16:25:00 11.2 C 6.08 g/m*3 11.2 C 8.1 km/h
775 06-05-2019 16:30:00 11.1 C 5.94 g/m*3 11.1 C 11.3 km/h
Sensor: Nr:Datum:Temp:Abs-Feuchte:Windchill:Wind:
Aussen-T/F 776 06-05-2019 16:35:00 10.9 C 6.07 g/m*3 10.41 C 6.4 km/h
777 06-05-2019 16:40:00 10.8 C 5.93 g/m*3 9.16 C 12.9 km/h
778 06-05-2019 16:45:00 10.8 C 6.23 g/m*3 9.64 C 9.7 km/h
779 06-05-2019 16:50:00 10.8 C 6.03 g/m*3 10.8 C 3.2 km/h
780 06-05-2019 16:55:00 10.7 C 6.09 g/m*3 9.81 C 8.1 km/h
781 06-05-2019 17:00:00 10.7 C 5.99 g/m*3 10.7 C 1.6 km/h
782 06-05-2019 17:05:00 10.7 C 5.99 g/m*3 9.52 C 9.7 km/h
783 06-05-2019 17:10:00 10.8 C 6.03 g/m*3 10.29 C 6.4 km/h
784 06-05-2019 17:15:00 10.8 C 6.23 g/m*3 10.8 C 3.2 km/h
785 06-05-2019 17:20:00 10.8 C 5.93 g/m*3 10.8 C 3.2 km/h
786 06-05-2019 17:25:00 10.7 C 5.89 g/m*3 10.7 C 4.8 km/h
787 06-05-2019 17:30:00 10.7 C 5.89 g/m*3 10.18 C 6.4 km/h
788 06-05-2019 17:35:00 10.6 C 6.05 g/m*3 9.69 C 8.1 km/h
789 06-05-2019 17:40:00 10.6 C 6.05 g/m*3 10.06 C 6.4 km/h
790 06-05-2019 17:45:00 10.6 C 6.05 g/m*3 10.06 C 6.4 km/h
791 06-05-2019 17:50:00 10.6 C 6.05 g/m*3 10.06 C 6.4 km/h
792 06-05-2019 17:55:00 10.5 C 5.82 g/m*3 10.5 C 4.8 km/h
793 06-05-2019 18:00:00 10.5 C 6.01 g/m*3 10.5 C 3.2 km/h
794 06-05-2019 18:05:00 10.6 C 6.25 g/m*3 10.6 C 4.8 km/h
795 06-05-2019 18:10:00 10.9 C 6.47 g/m*3 10.9 C 4.8 km/h
796 06-05-2019 18:15:00 11.3 C 6.22 g/m*3 11.3 C 8.1 km/h
797 06-05-2019 18:20:00 11.5 C 5.99 g/m*3 11.5 C 6.4 km/h
798 06-05-2019 18:25:00 11.6 C 6.44 g/m*3 11.6 C 3.2 km/h
799 06-05-2019 18:30:00 11.8 C 6.42 g/m*3 11.8 C 3.2 km/h
800 06-05-2019 18:35:00 11.8 C 6.42 g/m*3 11.8 C 4.8 km/h
Sensor: Nr:Datum:Temp:Abs-Feuchte:Windchill:Wind:
Aussen-T/F 801 06-05-2019 18:40:00 11.8 C 6.1 g/m*3 11.8 C 4.8 km/h
802 06-05-2019 18:45:00 11.8 C 6.42 g/m*3 11.8 C 1.6 km/h
803 06-05-2019 18:50:00 11.8 C 6.42 g/m*3 11.8 C 4.8 km/h
804 06-05-2019 18:55:00 11.7 C 6.38 g/m*3 11.7 C 1.6 km/h
805 06-05-2019 19:00:00 11.6 C 6.13 g/m*3 11.6 C 8.1 km/h
806 06-05-2019 19:05:00 11.3 C 6.22 g/m*3 11.3 C 4.8 km/h
807 06-05-2019 19:10:00 11.3 C 6.73 g/m*3 11.3 C 0 km/h
808 06-05-2019 19:15:00 11.2 C 6.49 g/m*3 11.2 C 6.4 km/h
809 06-05-2019 19:20:00 11 C 6.71 g/m*3 11 C 0 km/h
810 06-05-2019 19:25:00 10.9 C 6.96 g/m*3 10.9 C 0 km/h
811 06-05-2019 19:30:00 10.7 C 6.88 g/m*3 10.7 C 0 km/h
812 06-05-2019 19:35:00 10.6 C 6.93 g/m*3 10.6 C 0 km/h
813 06-05-2019 19:40:00 10.3 C 6.8 g/m*3 10.3 C 0 km/h
814 06-05-2019 19:45:00 10.2 C 6.95 g/m*3 10.2 C 0 km/h
815 06-05-2019 19:50:00 10.1 C 6.9 g/m*3 10.1 C 0 km/h
816 06-05-2019 19:55:00 9.9 C 6.91 g/m*3 9.9 C 0 km/h
817 06-05-2019 20:00:00 9.7 C 6.73 g/m*3 9.7 C 1.6 km/h
818 06-05-2019 20:05:00 9.6 C 6.87 g/m*3 9.6 C 0 km/h
819 06-05-2019 20:10:00 9.4 C 6.69 g/m*3 9.4 C 0 km/h
820 06-05-2019 20:15:00 9.3 C 6.47 g/m*3 7.12 C 14.5 km/h
821 06-05-2019 20:20:00 9.3 C 6.56 g/m*3 7.33 C 12.9 km/h
822 06-05-2019 20:25:00 9.3 C 6.65 g/m*3 8.56 C 6.4 km/h
823 06-05-2019 20:30:00 9.2 C 6.61 g/m*3 8.45 C 6.4 km/h
824 06-05-2019 20:35:00 9.1 C 6.83 g/m*3 9.1 C 0 km/h
825 06-05-2019 20:40:00 9.1 C 6.92 g/m*3 9.1 C 0 km/h
Sensor: Nr:Datum:Temp:Abs-Feuchte:Windchill:Wind:
Aussen-T/F 826 06-05-2019 20:45:00 8.9 C 6.83 g/m*3 8.9 C 0 km/h
827 06-05-2019 20:50:00 8.7 C 6.75 g/m*3 8.7 C 0 km/h
828 06-05-2019 20:55:00 8.6 C 6.87 g/m*3 8.6 C 0 km/h
829 06-05-2019 21:00:00 8.6 C 6.96 g/m*3 8.6 C 0 km/h
830 06-05-2019 21:05:00 8.5 C 7 g/m*3 8.5 C 0 km/h
831 06-05-2019 21:10:00 8.4 C 6.96 g/m*3 8.4 C 0 km/h
832 06-05-2019 21:15:00 8.3 C 6.91 g/m*3 8.3 C 1.6 km/h
833 06-05-2019 21:20:00 8.2 C 6.78 g/m*3 8.2 C 0 km/h
834 06-05-2019 21:25:00 8.2 C 6.87 g/m*3 8.2 C 0 km/h
835 06-05-2019 21:30:00 8.2 C 6.87 g/m*3 8.2 C 0 km/h
836 06-05-2019 21:35:00 8.2 C 6.87 g/m*3 8.2 C 0 km/h
837 06-05-2019 21:40:00 8.2 C 6.87 g/m*3 8.2 C 0 km/h
838 06-05-2019 21:45:00 8.2 C 6.95 g/m*3 8.2 C 0 km/h
839 06-05-2019 21:50:00 8.1 C 6.82 g/m*3 8.1 C 0 km/h
840 06-05-2019 21:55:00 8.1 C 6.91 g/m*3 8.1 C 0 km/h
841 06-05-2019 22:00:00 8 C 6.86 g/m*3 8 C 0 km/h
842 06-05-2019 22:05:00 7.9 C 6.9 g/m*3 7.9 C 1.6 km/h
843 06-05-2019 22:10:00 7.9 C 6.9 g/m*3 7.9 C 1.6 km/h
844 06-05-2019 22:15:00 7.9 C 6.98 g/m*3 7.9 C 0 km/h
845 06-05-2019 22:20:00 7.9 C 6.98 g/m*3 7.9 C 0 km/h
846 06-05-2019 22:25:00 7.8 C 7.02 g/m*3 7.8 C 0 km/h
847 06-05-2019 22:30:00 7.8 C 7.02 g/m*3 7.8 C 0 km/h
848 06-05-2019 22:35:00 7.7 C 6.97 g/m*3 7.7 C 0 km/h
849 06-05-2019 22:40:00 7.6 C 6.93 g/m*3 7.6 C 0 km/h
850 06-05-2019 22:45:00 7.6 C 7.01 g/m*3 7.6 C 0 km/h
Sensor: Nr:Datum:Temp:Abs-Feuchte:Windchill:Wind:
Aussen-T/F 851 06-05-2019 22:50:00 7.5 C 6.96 g/m*3 7.5 C 0 km/h
852 06-05-2019 22:55:00 7.4 C 6.92 g/m*3 7.4 C 0 km/h
853 06-05-2019 23:00:00 7.4 C 6.84 g/m*3 7.4 C 0 km/h
854 06-05-2019 23:05:00 7.3 C 6.79 g/m*3 7.3 C 0 km/h
855 06-05-2019 23:10:00 7.3 C 6.79 g/m*3 7.3 C 0 km/h
856 06-05-2019 23:15:00 7.3 C 6.87 g/m*3 7.3 C 0 km/h
857 06-05-2019 23:20:00 7.3 C 6.87 g/m*3 7.3 C 0 km/h
858 06-05-2019 23:25:00 7.3 C 6.87 g/m*3 7.3 C 0 km/h
859 06-05-2019 23:30:00 7.3 C 6.87 g/m*3 7.3 C 0 km/h
860 06-05-2019 23:35:00 7.3 C 6.87 g/m*3 7.3 C 0 km/h
861 06-05-2019 23:40:00 7.3 C 6.87 g/m*3 7.3 C 0 km/h
862 06-05-2019 23:45:00 7.3 C 6.87 g/m*3 7.3 C 0 km/h
863 06-05-2019 23:50:00 7.3 C 6.87 g/m*3 7.3 C 0 km/h
864 06-05-2019 23:55:00 7.3 C 6.95 g/m*3 7.3 C 0 km/h

Legende:
   Min
   Max


Maximal/Minimal-Werte vom 04.05.2019 - 06.05.2019

Sensor Min Max Avg
Temp
(Aussen-T/F)
2.3 °C
05-05-2019  07:15:00
13.4 °C
05-05-2019  18:00:00
6.89 °C
Abs-Feuchte
(Aussen-T/F)
5.16 g/m*3
06-05-2019  12:10:00
7.95 g/m*3
04-05-2019  17:10:00
6.14 g/m*3
Windchill
(Aussen-T/F)
0.22 C
04-05-2019  07:25:00
13.4 C
05-05-2019  18:00:00
6.26 C

Die Daten stammen von einer Davis Vantage Pro 2 Wetter-Station und werden unter Linux mit der Software wview2wettercgi und aufbereitet. Alle Angaben erfolgen ohne Gewähr für ihre Vollständigkeit oder Richtigkeit.
Kontakt: Rainer Krienke krienke@uni-koblenz.de . Meine Webseiten an der Uni Koblenz oder privat.
Version: $Revision: 0.78 $